Time;durP1;ratioP1;P1;durP2;ratioP2;P2;SDS_P1;SDS_P2;PMS_P1;PMS_P2;Temp;Humidity;BMP_temperature;BMP_pressure;BME280_temperature;BME280_humidity;BME280_pressure;Samples;Min_cycle;Max_cycle;Signal;HPM_P1;HPM_P2
2022/08/28 00:00:43;;;;;;;6.65;2.33;;;10.10;99.90;;;;;;5046892;28;20076;-48
2022/08/28 00:03:12;;;;;;;7.03;2.47;;;10.20;99.90;;;;;;5046815;28;20044;-49
2022/08/28 00:05:38;;;;;;;8.52;2.28;;;10.10;99.90;;;;;;5046871;28;20112;-47
2022/08/28 00:08:05;;;;;;;8.00;3.42;;;11.00;99.90;;;;;;5046806;28;20048;-48
2022/08/28 00:10:31;;;;;;;11.43;3.35;;;10.70;99.90;;;;;;5046431;28;20044;-48
2022/08/28 00:12:57;;;;;;;8.55;3.63;;;10.10;99.90;;;;;;5046185;28;20049;-49
2022/08/28 00:15:32;;;;;;;8.45;2.40;;;10.10;99.90;;;;;;5046334;28;20056;-47
2022/08/28 00:17:58;;;;;;;9.73;2.90;;;10.40;99.90;;;;;;5046318;28;20045;-48
2022/08/28 00:20:25;;;;;;;6.07;2.65;;;10.10;99.90;;;;;;5046290;28;20116;-49
2022/08/28 00:22:51;;;;;;;8.43;2.88;;;10.10;99.90;;;;;;5045871;28;20526;-47
2022/08/28 00:25:19;;;;;;;8.40;2.58;;;10.50;99.90;;;;;;5046097;28;20041;-47
2022/08/28 00:27:53;;;;;;;11.27;3.40;;;9.90;99.90;;;;;;5046178;28;20044;-47
2022/08/28 00:30:20;;;;;;;7.20;2.67;;;8.90;99.90;;;;;;5046131;28;20052;-47
2022/08/28 00:32:46;;;;;;;9.68;3.10;;;9.80;99.90;;;;;;5046153;28;20049;-48
2022/08/28 00:35:11;;;;;;;9.90;4.18;;;9.90;99.90;;;;;;5046283;28;20056;-48
2022/08/28 00:37:38;;;;;;;7.97;3.03;;;10.00;99.90;;;;;;5045895;28;20041;-48
2022/08/28 00:40:07;;;;;;;8.85;3.53;;;10.00;99.90;;;;;;5045973;28;20044;-47
2022/08/28 00:42:35;;;;;;;8.10;3.08;;;10.00;99.90;;;;;;5046143;28;20171;-48
2022/08/28 00:45:00;;;;;;;6.20;3.10;;;10.00;99.90;;;;;;5047473;28;20170;-46
2022/08/28 00:47:27;;;;;;;6.45;2.53;;;10.00;99.90;;;;;;5050188;28;20083;-50
2022/08/28 00:49:55;;;;;;;9.13;3.40;;;10.00;99.90;;;;;;5050100;28;20044;-47
2022/08/28 00:52:23;;;;;;;6.28;2.70;;;10.00;99.90;;;;;;5050340;28;20051;-48
2022/08/28 00:55:01;;;;;;;12.57;3.13;;;10.00;99.90;;;;;;5050287;28;20489;-47
2022/08/28 00:57:32;;;;;;;9.88;3.13;;;10.30;99.90;;;;;;5050266;28;20391;-47
2022/08/28 00:59:58;;;;;;;5.80;2.72;;;9.90;99.90;;;;;;5050454;28;20080;-48
2022/08/28 01:02:26;;;;;;;5.03;2.33;;;9.80;99.90;;;;;;5050554;28;20087;-47
2022/08/28 01:04:52;;;;;;;7.85;2.22;;;10.10;99.90;;;;;;5050451;28;20053;-51
2022/08/28 01:07:18;;;;;;;7.53;3.38;;;9.80;99.90;;;;;;5050678;28;20142;-47
2022/08/28 01:09:49;;;;;;;13.25;3.65;;;9.70;99.90;;;;;;5049960;28;20052;-48
2022/08/28 01:12:26;;;;;;;7.00;2.67;;;9.80;99.90;;;;;;5049406;28;20092;-47
2022/08/28 01:14:58;;;;;;;8.80;2.90;;;9.70;99.90;;;;;;5049950;28;20157;-46
2022/08/28 01:17:27;;;;;;;9.43;3.80;;;9.70;99.90;;;;;;5049769;28;20048;-47
2022/08/28 01:19:57;;;;;;;12.70;3.38;;;9.80;99.90;;;;;;5049648;28;20452;-48
2022/08/28 01:22:40;;;;;;;7.32;3.15;;;9.80;99.90;;;;;;5049775;28;20496;-48
2022/08/28 01:25:19;;;;;;;8.30;2.75;;;9.50;99.90;;;;;;5049440;28;20049;-48
2022/08/28 01:27:44;;;;;;;7.90;2.45;;;9.80;99.90;;;;;;5049425;28;20036;-47
2022/08/28 01:30:16;;;;;;;6.25;2.30;;;9.50;99.90;;;;;;5049582;28;20087;-47
2022/08/28 01:32:49;;;;;;;9.95;2.70;;;10.60;99.90;;;;;;5049655;28;20033;-47
2022/08/28 01:35:19;;;;;;;9.57;2.72;;;9.50;99.90;;;;;;5049253;28;20148;-49
2022/08/28 01:37:45;;;;;;;6.90;2.53;;;9.50;99.90;;;;;;5048990;28;20114;-50
2022/08/28 01:40:16;;;;;;;5.68;2.10;;;9.80;99.90;;;;;;5049370;28;20033;-48
2022/08/28 01:42:43;;;;;;;9.50;2.50;;;9.50;99.90;;;;;;5049026;28;20525;-48
2022/08/28 01:45:14;;;;;;;7.90;2.60;;;9.70;99.90;;;;;;5049154;28;20036;-47
2022/08/28 01:47:42;;;;;;;7.15;2.47;;;9.50;99.90;;;;;;5048932;28;20469;-47
2022/08/28 01:50:10;;;;;;;6.50;2.70;;;9.90;99.90;;;;;;5049274;28;20040;-49
2022/08/28 01:52:37;;;;;;;9.10;2.50;;;9.40;99.90;;;;;;5048929;28;20055;-49
2022/08/28 01:55:04;;;;;;;5.82;2.30;;;9.30;99.90;;;;;;5048930;28;20048;-47
2022/08/28 01:57:30;;;;;;;6.40;2.53;;;9.30;99.90;;;;;;5047926;28;20422;-46
2022/08/28 01:59:56;;;;;;;5.80;2.25;;;10.00;99.90;;;;;;5049057;28;20033;-47
2022/08/28 02:02:21;;;;;;;7.90;2.70;;;9.30;99.90;;;;;;5048854;28;20056;-48
2022/08/28 02:04:47;;;;;;;8.85;2.72;;;9.20;99.90;;;;;;5048710;28;20037;-48
2022/08/28 02:07:13;;;;;;;9.98;3.13;;;9.20;99.90;;;;;;5047616;28;20522;-48
2022/08/28 02:09:39;;;;;;;5.75;2.28;;;9.10;99.90;;;;;;5048613;28;20095;-47
2022/08/28 02:12:05;;;;;;;4.03;1.98;;;9.90;99.90;;;;;;5048453;28;20503;-51
2022/08/28 02:14:31;;;;;;;7.75;2.58;;;9.10;99.90;;;;;;5048623;28;20427;-47
2022/08/28 02:16:57;;;;;;;4.57;2.53;;;8.90;99.90;;;;;;5048802;28;20051;-49
2022/08/28 02:19:23;;;;;;;6.28;2.30;;;8.90;99.90;;;;;;5047448;28;20041;-48
2022/08/28 02:21:49;;;;;;;6.78;2.50;;;8.90;99.90;;;;;;5048258;28;20115;-49
2022/08/28 02:24:15;;;;;;;5.85;2.85;;;8.90;99.90;;;;;;5048254;28;20037;-49
2022/08/28 02:26:43;;;;;;;6.63;1.95;;;8.90;99.90;;;;;;5048179;28;20052;-47
2022/08/28 02:29:10;;;;;;;7.10;2.70;;;8.80;99.90;;;;;;5047841;28;20490;-51
2022/08/28 02:31:36;;;;;;;11.43;3.03;;;9.30;99.90;;;;;;5048024;28;20072;-47
2022/08/28 02:34:02;;;;;;;5.90;2.35;;;8.80;99.90;;;;;;5048134;28;20099;-50
2022/08/28 02:36:28;;;;;;;8.02;3.05;;;8.80;99.90;;;;;;5048413;28;20080;-46
2022/08/28 02:38:53;;;;;;;9.27;2.60;;;9.50;99.90;;;;;;5047786;28;20041;-46
2022/08/28 02:41:19;;;;;;;8.68;3.03;;;8.70;99.90;;;;;;5048175;28;20052;-47
2022/08/28 02:43:45;;;;;;;7.10;2.80;;;8.70;99.90;;;;;;5047633;28;20049;-47
2022/08/28 02:46:11;;;;;;;6.80;2.53;;;9.50;99.90;;;;;;5048173;28;20094;-48
2022/08/28 02:48:39;;;;;;;10.60;2.88;;;8.70;99.90;;;;;;5046912;28;20790;-49
2022/08/28 02:51:08;;;;;;;10.90;3.28;;;8.70;99.90;;;;;;5048321;28;20106;-48
2022/08/28 02:53:35;;;;;;;10.10;3.30;;;8.70;99.90;;;;;;5047798;28;20045;-47
2022/08/28 02:56:01;;;;;;;10.35;3.13;;;8.60;99.90;;;;;;5047740;28;20061;-47
2022/08/28 02:58:31;;;;;;;6.22;2.78;;;8.70;99.90;;;;;;5047911;28;20045;-47
2022/08/28 03:01:00;;;;;;;5.15;2.67;;;8.70;99.90;;;;;;5047598;28;20435;-49
2022/08/28 03:03:29;;;;;;;4.43;2.67;;;8.80;99.90;;;;;;5047529;28;20052;-49
2022/08/28 03:05:56;;;;;;;6.53;2.65;;;8.60;99.90;;;;;;5047405;28;20041;-47
2022/08/28 03:08:23;;;;;;;6.25;2.22;;;8.50;99.90;;;;;;5047276;28;20084;-47
2022/08/28 03:10:49;;;;;;;7.15;2.20;;;8.60;99.90;;;;;;5047292;28;20076;-46
2022/08/28 03:13:16;;;;;;;9.55;3.38;;;8.50;99.90;;;;;;5047893;28;20088;-47
2022/08/28 03:15:43;;;;;;;12.68;3.20;;;8.60;99.90;;;;;;5045751;28;20430;-46
2022/08/28 03:18:10;;;;;;;5.97;3.05;;;8.80;99.90;;;;;;5047559;28;20437;-51
2022/08/28 03:20:36;;;;;;;7.35;2.90;;;9.10;99.90;;;;;;5047492;28;20123;-47
2022/08/28 03:25:46;;;;;;;7.25;2.72;;;8.90;99.90;;;;;;5047217;28;20441;-48
2022/08/28 03:28:12;;;;;;;9.00;3.42;;;8.60;99.90;;;;;;5047602;28;20068;-47
2022/08/28 03:30:38;;;;;;;4.95;2.17;;;8.70;99.90;;;;;;5047229;28;20249;-49
2022/08/28 03:33:04;;;;;;;7.80;2.47;;;8.60;99.90;;;;;;5047030;28;20041;-48
2022/08/28 03:35:30;;;;;;;7.15;3.28;;;8.80;99.90;;;;;;5046778;28;20548;-47
2022/08/28 03:37:55;;;;;;;4.93;2.22;;;8.60;99.90;;;;;;5047125;28;20045;-52
2022/08/28 03:40:21;;;;;;;9.57;2.92;;;8.60;99.90;;;;;;5047080;28;20051;-48
2022/08/28 03:42:47;;;;;;;10.38;2.60;;;8.60;99.90;;;;;;5046638;28;20036;-48
2022/08/28 03:45:13;;;;;;;6.70;2.55;;;9.00;99.90;;;;;;5047061;28;20043;-48
2022/08/28 03:47:40;;;;;;;6.22;2.55;;;8.80;99.90;;;;;;5046981;28;20037;-47
2022/08/28 03:50:10;;;;;;;10.65;3.00;;;8.60;99.90;;;;;;5046789;28;20053;-51
2022/08/28 03:52:37;;;;;;;7.53;2.55;;;8.70;99.90;;;;;;5045978;28;20439;-51
2022/08/28 03:55:07;;;;;;;6.95;2.47;;;8.50;99.90;;;;;;5046540;28;20067;-48
2022/08/28 03:57:34;;;;;;;10.77;3.30;;;8.70;99.90;;;;;;5047077;28;20037;-51
2022/08/28 04:00:01;;;;;;;7.45;2.30;;;8.60;99.90;;;;;;5046546;28;20060;-47
2022/08/28 04:02:27;;;;;;;6.95;2.40;;;8.60;99.90;;;;;;5046596;28;20043;-49
2022/08/28 04:04:52;;;;;;;8.77;2.53;;;8.60;99.90;;;;;;5046314;28;20045;-49
2022/08/28 04:07:18;;;;;;;5.15;2.22;;;8.50;99.90;;;;;;5046517;28;20041;-48
2022/08/28 04:09:45;;;;;;;9.88;2.85;;;9.50;99.90;;;;;;5046377;28;20045;-48
2022/08/28 04:12:11;;;;;;;10.32;3.30;;;8.80;99.90;;;;;;5045938;28;20084;-47
2022/08/28 04:14:37;;;;;;;8.30;3.60;;;8.70;99.90;;;;;;5046165;28;20047;-48
2022/08/28 04:17:04;;;;;;;11.63;2.72;;;9.00;99.90;;;;;;5045788;28;20487;-48
2022/08/28 04:19:30;;;;;;;12.02;3.00;;;9.10;99.90;;;;;;5045621;28;20076;-49
2022/08/28 04:21:56;;;;;;;7.78;2.90;;;8.90;99.90;;;;;;5046204;28;20454;-46
2022/08/28 04:24:21;;;;;;;8.25;2.47;;;9.10;99.90;;;;;;5046636;28;20080;-48
2022/08/28 04:26:47;;;;;;;10.30;2.90;;;8.80;99.90;;;;;;5046471;28;20056;-47
2022/08/28 04:29:13;;;;;;;6.85;2.80;;;8.80;99.90;;;;;;5046263;28;20487;-49
2022/08/28 04:31:39;;;;;;;9.52;2.72;;;9.10;99.90;;;;;;5046428;28;20135;-49
2022/08/28 04:34:07;;;;;;;6.07;2.50;;;9.70;99.90;;;;;;5046202;28;20155;-47
2022/08/28 04:36:34;;;;;;;7.55;2.90;;;8.70;99.90;;;;;;5046245;28;20139;-48
2022/08/28 04:39:00;;;;;;;12.73;3.30;;;9.30;99.90;;;;;;5045902;28;20037;-47
2022/08/28 04:41:27;;;;;;;7.05;2.78;;;9.50;99.90;;;;;;5046465;28;20052;-48
2022/08/28 04:43:56;;;;;;;8.13;2.95;;;8.80;99.90;;;;;;5045775;28;20041;-49
2022/08/28 04:46:22;;;;;;;10.32;3.53;;;8.70;99.90;;;;;;5045892;28;20592;-51
2022/08/28 04:48:48;;;;;;;7.10;2.88;;;8.90;99.90;;;;;;5046099;28;20072;-48
2022/08/28 04:51:14;;;;;;;7.07;2.70;;;9.30;99.90;;;;;;5046212;28;20455;-48
2022/08/28 04:53:40;;;;;;;6.45;2.80;;;9.50;99.90;;;;;;5046309;28;20045;-48
2022/08/28 04:56:09;;;;;;;8.13;3.47;;;8.80;99.90;;;;;;5045663;28;20507;-47
2022/08/28 04:58:35;;;;;;;13.05;3.30;;;8.70;99.90;;;;;;5046156;28;20037;-48
2022/08/28 05:01:14;;;;;;;7.55;2.63;;;9.10;99.90;;;;;;5046346;28;20138;-47
2022/08/28 05:03:41;;;;;;;10.63;3.22;;;9.20;99.90;;;;;;5046739;28;20095;-47
2022/08/28 05:06:07;;;;;;;10.93;4.20;;;9.90;99.90;;;;;;5045977;28;20044;-48
2022/08/28 05:08:33;;;;;;;8.82;3.25;;;9.20;99.90;;;;;;5046064;28;20076;-47
2022/08/28 05:11:09;;;;;;;12.23;3.80;;;9.10;99.90;;;;;;5045208;28;20097;-49
2022/08/28 05:13:36;;;;;;;6.40;3.17;;;9.90;99.90;;;;;;5045915;28;20128;-48
2022/08/28 05:16:02;;;;;;;4.55;2.50;;;9.60;99.90;;;;;;5046030;28;20583;-48
2022/08/28 05:18:28;;;;;;;9.77;3.33;;;9.60;99.90;;;;;;5046033;28;20052;-49
2022/08/28 05:20:54;;;;;;;9.10;2.75;;;10.20;99.90;;;;;;5045888;28;20037;-48
2022/08/28 05:23:20;;;;;;;9.02;3.05;;;10.80;99.90;;;;;;5045902;28;20044;-48
2022/08/28 05:25:47;;;;;;;10.32;2.65;;;10.10;99.90;;;;;;5045589;28;20045;-47
2022/08/28 05:28:15;;;;;;;9.93;3.30;;;10.70;99.90;;;;;;5044889;28;20359;-48
2022/08/28 05:30:42;;;;;;;5.95;2.60;;;10.70;99.90;;;;;;5046165;28;20530;-49
2022/08/28 05:33:09;;;;;;;12.93;2.38;;;11.80;99.90;;;;;;5049470;28;20489;-47
2022/08/28 05:35:38;;;;;;;9.00;2.47;;;12.10;99.90;;;;;;5049378;28;20390;-47
2022/08/28 05:38:05;;;;;;;8.52;3.33;;;11.40;99.90;;;;;;5049185;28;20071;-48
2022/08/28 05:40:31;;;;;;;8.38;2.45;;;11.70;99.90;;;;;;5049101;28;20044;-47
2022/08/28 05:42:57;;;;;;;6.47;2.95;;;11.30;99.90;;;;;;5048564;28;20036;-47
2022/08/28 05:45:23;;;;;;;9.27;2.42;;;11.90;99.90;;;;;;5048825;28;20128;-47
2022/08/28 05:47:50;;;;;;;7.40;2.75;;;11.40;99.90;;;;;;5049050;28;20610;-50
2022/08/28 05:50:17;;;;;;;7.28;2.55;;;12.20;99.90;;;;;;5048366;28;20495;-47
2022/08/28 05:52:43;;;;;;;8.00;2.63;;;11.60;99.90;;;;;;5048794;28;20128;-49
2022/08/28 05:55:10;;;;;;;7.80;2.08;;;11.80;99.90;;;;;;5048579;28;20548;-49
2022/08/28 05:57:38;;;;;;;9.55;2.78;;;12.30;99.90;;;;;;5048899;28;20048;-51
2022/08/28 06:00:05;;;;;;;9.70;2.75;;;12.10;99.90;;;;;;5048676;28;20119;-47
2022/08/28 06:02:31;;;;;;;8.70;2.58;;;12.70;99.90;;;;;;5048824;28;20125;-48
2022/08/28 06:04:56;;;;;;;9.55;2.15;;;13.00;99.90;;;;;;5048853;28;20041;-48
2022/08/28 06:07:23;;;;;;;8.30;1.90;;;14.10;99.90;;;;;;5049235;28;20098;-49
2022/08/28 06:09:48;;;;;;;8.27;2.38;;;16.20;99.90;;;;;;5048463;28;20072;-49
2022/08/28 06:12:15;;;;;;;4.97;1.63;;;17.90;99.90;;;;;;5048330;28;20644;-48
2022/08/28 06:14:41;;;;;;;5.07;1.73;;;19.00;99.90;;;;;;5049488;28;20088;-50
2022/08/28 06:17:07;;;;;;;5.18;2.40;;;20.10;99.90;;;;;;5048561;28;20080;-47
2022/08/28 06:19:34;;;;;;;6.65;1.45;;;20.40;99.90;;;;;;5048656;28;20032;-47
2022/08/28 06:22:03;;;;;;;4.82;1.20;;;21.10;99.90;;;;;;5048217;28;20128;-49
2022/08/28 06:24:30;;;;;;;5.68;1.52;;;20.60;98.80;;;;;;5048478;28;20072;-47
2022/08/28 06:26:56;;;;;;;6.03;1.15;;;20.20;99.90;;;;;;5048795;28;20124;-49
2022/08/28 06:29:22;;;;;;;5.07;1.17;;;19.00;99.90;;;;;;5048615;28;20045;-49
2022/08/28 06:31:59;;;;;;;8.38;1.50;;;18.40;99.90;;;;;;5048598;28;20045;-49
2022/08/28 06:34:26;;;;;;;7.22;1.40;;;18.00;99.90;;;;;;5048765;28;20507;-49
2022/08/28 06:36:53;;;;;;;4.63;1.20;;;17.70;99.90;;;;;;5047956;28;20053;-48
2022/08/28 06:39:18;;;;;;;6.00;1.42;;;17.50;99.90;;;;;;5047863;28;20498;-48
2022/08/28 06:41:44;;;;;;;5.80;0.90;;;17.50;99.90;;;;;;5048040;28;20037;-48
2022/08/28 06:44:13;;;;;;;3.78;0.80;;;18.50;99.90;;;;;;5047175;28;20045;-48
2022/08/28 06:46:40;;;;;;;6.53;1.45;;;20.30;99.90;;;;;;5047920;28;20044;-49
2022/08/28 06:49:07;;;;;;;5.25;0.93;;;20.90;99.30;;;;;;5047986;28;20095;-48
2022/08/28 06:51:33;;;;;;;4.50;0.68;;;20.30;98.90;;;;;;5048151;28;20044;-48
2022/08/28 06:54:00;;;;;;;6.45;0.90;;;19.70;99.80;;;;;;5047119;28;20549;-48
2022/08/28 06:56:26;;;;;;;3.25;0.65;;;19.30;99.90;;;;;;5047144;28;20045;-49
2022/08/28 06:58:52;;;;;;;10.95;1.08;;;18.90;99.90;;;;;;5047487;28;20494;-48
2022/08/28 07:01:25;;;;;;;7.85;0.93;;;18.80;99.90;;;;;;5047108;28;20072;-47
2022/08/28 07:03:53;;;;;;;5.40;0.75;;;18.80;99.90;;;;;;5047522;28;20380;-49
2022/08/28 07:06:21;;;;;;;5.88;0.70;;;18.80;99.90;;;;;;5047540;28;20044;-49
2022/08/28 07:08:47;;;;;;;5.82;1.00;;;18.70;99.90;;;;;;5047430;28;20127;-48
2022/08/28 07:11:17;;;;;;;4.90;1.05;;;18.50;99.90;;;;;;5047079;28;20123;-48
2022/08/28 07:13:43;;;;;;;4.22;1.00;;;18.30;99.90;;;;;;5047700;28;20055;-49
2022/08/28 07:16:11;;;;;;;4.40;0.85;;;18.20;99.90;;;;;;5046806;28;20499;-48
2022/08/28 07:18:38;;;;;;;7.03;0.75;;;18.00;99.90;;;;;;5047201;28;20462;-48
2022/08/28 07:21:04;;;;;;;5.60;0.75;;;17.90;99.90;;;;;;5047420;28;20052;-48
2022/08/28 07:23:32;;;;;;;8.77;1.27;;;18.70;99.90;;;;;;5047171;28;20036;-50
2022/08/28 07:25:57;;;;;;;6.90;1.02;;;17.90;99.90;;;;;;5045770;28;20142;-47
2022/08/28 07:28:23;;;;;;;7.75;0.70;;;17.80;99.90;;;;;;5047020;28;20469;-48
2022/08/28 07:31:02;;;;;;;5.82;1.08;;;17.80;99.90;;;;;;5047118;28;20048;-48
2022/08/28 07:33:28;;;;;;;3.55;0.60;;;17.80;99.90;;;;;;5046568;28;20140;-48
2022/08/28 07:35:55;;;;;;;3.78;0.70;;;17.90;99.90;;;;;;5046843;28;20102;-48
2022/08/28 07:38:21;;;;;;;3.78;0.65;;;18.10;99.90;;;;;;5046547;28;20052;-49
2022/08/28 07:40:47;;;;;;;5.60;0.70;;;18.00;99.90;;;;;;5046856;28;20048;-47
2022/08/28 07:45:59;;;;;;;8.68;0.70;;;18.10;99.90;;;;;;5046284;28;20049;-49
2022/08/28 07:48:25;;;;;;;9.50;1.48;;;18.10;99.90;;;;;;5046017;28;20036;-47
2022/08/28 07:50:51;;;;;;;3.05;0.60;;;18.30;99.90;;;;;;5046340;28;20120;-48
2022/08/28 07:53:17;;;;;;;9.13;0.82;;;18.70;99.90;;;;;;5046567;28;20136;-48
2022/08/28 07:55:43;;;;;;;3.25;0.75;;;19.20;99.90;;;;;;5046822;28;20057;-48
2022/08/28 07:58:08;;;;;;;2.88;0.63;;;19.70;99.90;;;;;;5042018;28;20076;-48
2022/08/28 08:00:34;;;;;;;4.10;0.63;;;19.80;99.10;;;;;;5046661;28;20056;-49
2022/08/28 08:03:00;;;;;;;4.22;0.55;;;19.70;98.00;;;;;;5046527;28;20037;-49
2022/08/28 08:05:26;;;;;;;4.20;0.75;;;19.50;96.90;;;;;;5046403;28;20044;-48
2022/08/28 08:07:51;;;;;;;3.85;0.40;;;19.40;95.70;;;;;;5046323;28;20128;-48
2022/08/28 08:10:17;;;;;;;3.22;0.60;;;19.40;95.40;;;;;;5046630;28;20672;-48
2022/08/28 08:12:44;;;;;;;8.05;0.90;;;19.50;94.90;;;;;;5046874;28;20056;-48
2022/08/28 08:15:11;;;;;;;5.30;0.80;;;19.70;94.30;;;;;;5046850;28;20120;-48
2022/08/28 08:17:38;;;;;;;8.23;0.68;;;19.80;93.80;;;;;;5047404;28;20067;-48
2022/08/28 08:20:05;;;;;;;3.75;0.60;;;20.00;93.40;;;;;;5046855;28;20051;-48
2022/08/28 08:22:31;;;;;;;5.80;1.23;;;20.60;93.10;;;;;;5046893;28;20952;-48
2022/08/28 08:24:57;;;;;;;4.78;0.63;;;22.50;93.50;;;;;;5045996;28;20503;-48
2022/08/28 08:27:23;;;;;;;6.30;0.50;;;24.40;88.60;;;;;;5045628;28;20139;-49
2022/08/28 08:29:49;;;;;;;4.53;0.73;;;26.20;79.60;;;;;;5046244;28;20084;-48
2022/08/28 08:32:16;;;;;;;4.30;0.50;;;27.70;72.30;;;;;;5046104;28;20041;-49
2022/08/28 08:34:46;;;;;;;3.67;0.60;;;28.90;66.80;;;;;;5046442;28;20040;-47
2022/08/28 08:37:12;;;;;;;4.13;0.60;;;30.10;63.40;;;;;;5046009;28;20048;-48
2022/08/28 08:39:40;;;;;;;4.38;0.77;;;30.90;60.20;;;;;;5046195;28;20124;-49
2022/08/28 08:42:30;;;;;;;3.33;0.50;;;31.60;58.00;;;;;;5046428;28;20047;-49
2022/08/28 08:44:58;;;;;;;3.80;0.60;;;32.10;53.60;;;;;;5046343;28;20120;-48
2022/08/28 08:47:46;;;;;;;2.30;0.70;;;32.60;55.00;;;;;;5046320;28;20041;-48
2022/08/28 08:50:16;;;;;;;4.28;0.65;;;32.90;53.20;;;;;;5044825;28;20119;-48
2022/08/28 08:53:14;;;;;;;4.00;0.40;;;33.80;53.30;;;;;;5046250;28;20510;-48
2022/08/28 08:55:51;;;;;;;3.03;0.63;;;33.70;52.40;;;;;;5046062;28;20064;-51
2022/08/28 08:58:37;;;;;;;3.20;0.40;;;34.00;50.00;;;;;;5046147;28;20091;-49
2022/08/28 09:01:27;;;;;;;3.38;0.50;;;32.70;49.20;;;;;;5046260;28;20072;-49
2022/08/28 09:04:02;;;;;;;5.03;0.85;;;31.30;50.80;;;;;;5046151;28;20037;-49
2022/08/28 09:06:48;;;;;;;3.35;0.70;;;29.90;52.80;;;;;;5048567;28;20128;-49
2022/08/28 09:09:36;;;;;;;4.10;0.50;;;28.90;54.30;;;;;;5048595;28;20155;-50
2022/08/28 09:12:08;;;;;;;5.15;0.88;;;28.30;55.60;;;;;;5049732;28;20053;-47
2022/08/28 09:14:52;;;;;;;2.03;0.40;;;29.30;56.10;;;;;;5049936;28;20099;-49
2022/08/28 09:17:20;;;;;;;4.68;0.52;;;30.40;54.90;;;;;;5049721;28;20052;-49
2022/08/28 09:19:46;;;;;;;5.78;0.88;;;30.60;54.20;;;;;;5049430;28;20041;-48
2022/08/28 09:22:12;;;;;;;3.25;0.90;;;31.20;53.30;;;;;;5049399;28;20041;-47
2022/08/28 09:24:40;;;;;;;5.05;0.70;;;30.50;52.60;;;;;;5048976;28;20491;-48
2022/08/28 09:27:26;;;;;;;4.80;0.70;;;29.50;53.30;;;;;;5049505;28;20052;-48
2022/08/28 09:30:06;;;;;;;3.40;0.65;;;28.50;54.60;;;;;;5049539;28;20040;-50
2022/08/28 09:32:40;;;;;;;2.97;0.63;;;27.40;55.70;;;;;;5049464;28;20386;-48
2022/08/28 09:35:23;;;;;;;4.30;0.77;;;26.60;57.80;;;;;;5049970;28;20063;-49
2022/08/28 09:37:49;;;;;;;4.05;0.63;;;26.00;58.60;;;;;;5049663;28;20041;-48
2022/08/28 09:40:17;;;;;;;3.83;0.60;;;26.10;60.10;;;;;;5048064;28;20524;-48
2022/08/28 09:46:14;;;;;;;7.43;0.63;;;26.40;58.60;;;;;;5049473;28;20063;-48
2022/08/28 09:48:45;;;;;;;3.90;0.80;;;25.60;59.60;;;;;;5048773;28;20049;-48
2022/08/28 09:51:10;;;;;;;5.93;1.10;;;24.90;61.10;;;;;;5049007;28;20136;-49
2022/08/28 09:53:58;;;;;;;3.97;0.70;;;24.40;62.60;;;;;;5048606;28;20041;-47
2022/08/28 09:56:38;;;;;;;5.20;0.60;;;24.80;63.20;;;;;;5048286;28;20045;-50
2022/08/28 09:59:19;;;;;;;3.70;1.05;;;26.10;63.20;;;;;;5048393;28;20037;-49
2022/08/28 10:01:56;;;;;;;4.97;1.23;;;27.30;58.80;;;;;;5048801;28;20036;-47
2022/08/28 10:04:57;;;;;;;5.65;0.98;;;27.20;58.10;;;;;;5049649;28;20045;-51
2022/08/28 10:07:37;;;;;;;2.83;0.50;;;26.40;56.60;;;;;;5045119;28;20411;-49
2022/08/28 10:10:35;;;;;;;5.15;0.80;;;25.50;59.70;;;;;;5049480;28;20370;-48
2022/08/28 10:13:34;;;;;;;3.13;0.50;;;25.00;59.70;;;;;;5049231;28;20088;-49
2022/08/28 10:16:13;;;;;;;4.30;0.50;;;24.40;60.10;;;;;;5049781;28;20503;-49
2022/08/28 10:19:19;;;;;;;6.28;1.13;;;23.90;63.10;;;;;;5047793;28;20049;-49
2022/08/28 10:21:56;;;;;;;3.95;0.77;;;23.90;64.50;;;;;;5049150;28;20048;-48
2022/08/28 10:24:38;;;;;;;4.10;0.63;;;25.20;64.90;;;;;;5049771;28;20118;-48
2022/08/28 10:27:10;;;;;;;;;;;26.00;62.90;;;;;;5050362;28;20119;-49
2022/08/28 10:30:15;;;;;;;4.25;0.80;;;25.80;61.20;;;;;;5049040;28;19925;-48
2022/08/28 10:33:11;;;;;;;3.63;0.63;;;25.70;62.00;;;;;;5048271;28;20040;-50
2022/08/28 10:35:56;;;;;;;5.80;0.80;;;26.20;62.70;;;;;;5048826;28;20045;-49
2022/08/28 10:38:41;;;;;;;4.10;0.60;;;26.60;60.70;;;;;;5049296;28;20175;-49
2022/08/28 10:41:09;;;;;;;3.42;0.50;;;26.70;61.50;;;;;;5049262;28;20037;-48
2022/08/28 10:43:45;;;;;;;5.82;0.82;;;26.80;60.90;;;;;;5048734;28;20041;-47
2022/08/28 10:46:16;;;;;;;4.95;0.80;;;26.40;59.80;;;;;;5049679;28;20048;-48
2022/08/28 10:48:49;;;;;;;3.15;0.80;;;26.10;59.80;;;;;;5049004;28;20087;-49
2022/08/28 10:51:45;;;;;;;3.67;0.80;;;25.70;60.00;;;;;;5048652;28;20053;-49
2022/08/28 10:54:26;;;;;;;5.10;0.80;;;25.20;59.70;;;;;;5048445;28;20120;-49
2022/08/28 10:57:10;;;;;;;4.17;0.70;;;24.80;61.60;;;;;;5048114;28;20514;-48
2022/08/28 10:59:38;;;;;;;3.53;0.70;;;24.60;61.60;;;;;;5048104;28;20079;-48
2022/08/28 11:02:07;;;;;;;9.18;1.00;;;24.20;62.40;;;;;;5048409;28;20084;-48
2022/08/28 11:04:33;;;;;;;4.85;0.40;;;23.90;62.80;;;;;;5048361;28;20900;-49
2022/08/28 11:07:10;;;;;;;5.25;0.60;;;23.80;64.00;;;;;;5048611;28;20055;-49
2022/08/28 11:09:40;;;;;;;3.75;0.85;;;23.80;64.50;;;;;;5048292;28;20037;-47
2022/08/28 11:12:28;;;;;;;3.70;0.60;;;23.70;65.40;;;;;;5047981;28;20049;-49
2022/08/28 11:14:54;;;;;;;4.38;0.57;;;23.90;65.40;;;;;;5048040;28;20049;-48
2022/08/28 11:17:24;;;;;;;8.57;1.08;;;23.80;65.10;;;;;;5047913;28;20045;-49
2022/08/28 11:20:23;;;;;;;4.30;1.10;;;23.60;64.50;;;;;;5047534;28;20079;-48
2022/08/28 11:23:11;;;;;;;5.07;0.70;;;23.50;64.40;;;;;;5043562;28;20162;-51
2022/08/28 11:25:40;;;;;;;3.40;0.50;;;23.40;64.80;;;;;;5047718;28;20045;-47
2022/08/28 11:28:23;;;;;;;6.05;0.60;;;23.40;65.40;;;;;;5047272;28;20040;-50
2022/08/28 11:30:57;;;;;;;3.92;0.60;;;23.40;64.00;;;;;;5047666;28;20464;-49
2022/08/28 11:33:51;;;;;;;5.07;0.68;;;23.50;64.70;;;;;;5047412;28;20045;-49
2022/08/28 11:36:20;;;;;;;6.40;0.65;;;23.50;63.50;;;;;;5047907;28;20036;-48
2022/08/28 11:38:54;;;;;;;3.85;0.95;;;23.40;64.30;;;;;;5047416;28;20507;-50
2022/08/28 11:41:26;;;;;;;4.65;0.68;;;23.20;64.60;;;;;;5047861;28;20056;-48
2022/08/28 11:44:12;;;;;;;6.00;0.98;;;23.10;64.90;;;;;;5047860;28;20049;-49
2022/08/28 11:46:48;;;;;;;2.85;0.50;;;23.10;65.10;;;;;;5048209;28;20441;-48
2022/08/28 11:49:25;;;;;;;3.60;0.60;;;23.20;65.20;;;;;;5047998;28;20367;-47
2022/08/28 11:52:22;;;;;;;7.13;1.15;;;23.20;64.60;;;;;;5047738;28;20041;-47
2022/08/28 11:55:23;;;;;;;3.88;0.70;;;23.20;64.20;;;;;;5047131;28;20055;-48
2022/08/28 11:58:07;;;;;;;3.37;0.60;;;23.40;65.40;;;;;;5046723;28;20051;-51
2022/08/28 12:00:54;;;;;;;3.15;0.70;;;23.50;64.30;;;;;;5047139;28;20120;-50
2022/08/28 12:03:26;;;;;;;4.90;0.80;;;23.30;64.20;;;;;;5047139;28;20483;-49
2022/08/28 12:05:55;;;;;;;7.65;0.68;;;23.10;64.50;;;;;;5047277;28;20052;-49
2022/08/28 12:08:53;;;;;;;6.75;0.80;;;22.70;64.80;;;;;;5047396;28;20040;-48
2022/08/28 12:11:37;;;;;;;4.82;1.25;;;22.40;64.20;;;;;;5047058;28;20061;-49
2022/08/28 12:14:04;;;;;;;4.35;0.90;;;22.40;65.40;;;;;;5046810;28;20044;-49
2022/08/28 12:17:02;;;;;;;8.75;0.63;;;22.70;65.80;;;;;;5047095;28;20132;-49
2022/08/28 12:19:43;;;;;;;3.05;0.80;;;22.70;65.70;;;;;;5047036;28;20041;-49
2022/08/28 12:22:12;;;;;;;4.60;1.00;;;22.60;65.10;;;;;;5047200;28;20141;-47
2022/08/28 12:24:55;;;;;;;6.15;0.77;;;22.50;65.60;;;;;;5047118;28;20589;-48
2022/08/28 12:27:22;;;;;;;6.18;0.93;;;22.20;65.70;;;;;;5047337;28;20116;-48
2022/08/28 12:29:52;;;;;;;4.30;0.85;;;22.00;66.50;;;;;;5045602;28;20041;-48
2022/08/28 12:32:53;;;;;;;5.05;0.88;;;22.20;66.90;;;;;;5029528;28;20123;-48
2022/08/28 12:35:22;;;;;;;5.38;0.90;;;22.20;66.90;;;;;;5043361;28;20047;-50
2022/08/28 12:37:54;;;;;;;4.40;0.93;;;22.10;66.80;;;;;;5042759;28;20037;-49
2022/08/28 12:40:22;;;;;;;6.28;0.93;;;22.20;65.90;;;;;;5042743;28;20099;-47
2022/08/28 12:42:53;;;;;;;4.70;0.82;;;22.10;66.40;;;;;;5043331;28;20045;-36
2022/08/28 12:45:29;;;;;;;4.32;0.85;;;22.20;66.30;;;;;;5042949;28;20051;-36
2022/08/28 12:48:00;;;;;;;2.00;0.60;;;22.20;66.60;;;;;;5043305;28;20047;-37
2022/08/28 12:50:34;;;;;;;5.35;0.82;;;22.10;66.20;;;;;;5044068;28;20178;-37
2022/08/28 12:53:04;;;;;;;4.95;0.80;;;22.10;66.30;;;;;;5042837;28;20069;-37
2022/08/28 12:55:30;;;;;;;3.00;0.70;;;22.00;65.80;;;;;;5043252;28;20037;-37
2022/08/28 12:57:56;;;;;;;5.82;1.10;;;22.10;66.70;;;;;;5043647;28;20041;-36
2022/08/28 13:00:31;;;;;;;3.05;0.77;;;22.20;66.60;;;;;;5043091;28;20060;-37
2022/08/28 13:02:59;;;;;;;5.72;0.80;;;22.30;66.40;;;;;;5046571;28;20068;-37
2022/08/28 13:05:40;;;;;;;4.32;0.50;;;22.20;67.10;;;;;;5045983;28;20495;-37
2022/08/28 13:08:09;;;;;;;4.82;0.60;;;22.10;67.10;;;;;;5046438;28;20068;-37
2022/08/28 13:10:50;;;;;;;3.17;0.60;;;22.00;67.30;;;;;;5045125;28;20049;-37
2022/08/28 13:13:32;;;;;;;3.53;0.70;;;22.10;67.30;;;;;;5026269;28;20057;-37
2022/08/28 13:16:31;;;;;;;3.40;0.65;;;22.20;67.30;;;;;;5039209;28;20482;-37
2022/08/28 13:19:04;;;;;;;3.30;0.73;;;22.30;67.40;;;;;;5039506;28;20108;-37